createdAt,value
2018-11-25T00:02:04.833Z,24.43
2018-11-25T00:04:33.442Z,22.13
2018-11-25T00:07:02.069Z,23.07
2018-11-25T00:09:30.732Z,23.23
2018-11-25T00:11:59.337Z,23.90
2018-11-25T00:14:27.926Z,23.23
2018-11-25T00:16:56.537Z,23.13
2018-11-25T00:19:25.123Z,22.10
2018-11-25T00:21:53.758Z,24.73
2018-11-25T00:24:22.350Z,25.17
2018-11-25T00:26:50.959Z,25.50
2018-11-25T00:29:19.555Z,24.33
2018-11-25T00:31:48.201Z,23.80
2018-11-25T00:34:16.795Z,23.97
2018-11-25T00:36:45.424Z,23.93
2018-11-25T00:39:14.030Z,24.40
2018-11-25T00:41:42.672Z,25.33
2018-11-25T00:44:11.298Z,24.53
2018-11-25T00:46:39.986Z,23.50
2018-11-25T00:49:08.662Z,24.10
2018-11-25T00:51:37.294Z,27.93
2018-11-25T00:54:06.061Z,25.60
2018-11-25T00:56:34.707Z,25.37
2018-11-25T00:59:04.054Z,28.23
2018-11-25T01:01:32.714Z,27.83
2018-11-25T01:04:01.849Z,25.10
2018-11-25T01:06:30.490Z,27.00
2018-11-25T01:08:59.105Z,28.43
2018-11-25T01:11:27.718Z,27.03
2018-11-25T01:13:56.337Z,25.80
2018-11-25T01:16:24.947Z,25.53
2018-11-25T01:18:53.563Z,24.53
2018-11-25T01:21:22.225Z,24.23
2018-11-25T01:23:50.813Z,26.30
2018-11-25T01:26:19.423Z,23.87
2018-11-25T01:28:48.015Z,23.10
2018-11-25T01:31:16.627Z,27.07
2018-11-25T01:33:45.231Z,27.83
2018-11-25T01:36:13.838Z,23.23
2018-11-25T01:38:42.449Z,24.63
2018-11-25T01:41:11.076Z,26.30
2018-11-25T01:43:39.674Z,26.40
2018-11-25T01:46:08.301Z,25.47
2018-11-25T01:48:36.903Z,25.37
2018-11-25T01:51:05.754Z,25.20
2018-11-25T01:53:34.359Z,25.13
2018-11-25T01:56:02.998Z,24.83
2018-11-25T01:58:31.590Z,23.50
2018-11-25T02:01:00.221Z,23.17
2018-11-25T02:03:28.825Z,24.23
2018-11-25T02:05:57.526Z,24.60
2018-11-25T02:08:26.146Z,25.37
2018-11-25T02:10:54.759Z,25.17
2018-11-25T02:13:23.368Z,24.37
2018-11-25T02:15:53.841Z,23.33
2018-11-25T02:18:22.507Z,23.27
2018-11-25T02:20:51.126Z,25.03
2018-11-25T02:23:19.793Z,24.97
2018-11-25T02:25:48.409Z,24.37
2018-11-25T02:28:16.994Z,25.60
2018-11-25T02:30:45.610Z,23.20
2018-11-25T02:33:14.226Z,23.83
2018-11-25T02:35:42.811Z,24.60
2018-11-25T02:38:11.441Z,23.27
2018-11-25T02:40:40.099Z,23.33
2018-11-25T02:43:08.694Z,23.43
2018-11-25T02:45:37.303Z,23.50
2018-11-25T02:48:05.914Z,22.50
2018-11-25T02:50:34.554Z,23.43
2018-11-25T02:53:05.422Z,23.70
2018-11-25T02:55:34.049Z,21.70
2018-11-25T02:58:02.690Z,21.40
2018-11-25T03:00:31.338Z,22.13
2018-11-25T03:02:59.995Z,20.43
2018-11-25T03:05:28.683Z,21.50
2018-11-25T03:07:57.362Z,21.90
2018-11-25T03:10:26.024Z,20.00
2018-11-25T03:12:54.618Z,22.13
2018-11-25T03:15:23.246Z,21.23
2018-11-25T03:17:51.851Z,20.47
2018-11-25T03:20:20.502Z,21.77
2018-11-25T03:22:49.114Z,21.60
2018-11-25T03:25:19.606Z,21.43
2018-11-25T03:27:48.283Z,21.43
2018-11-25T03:30:17.924Z,22.47
2018-11-25T03:32:47.461Z,21.80
2018-11-25T03:35:16.105Z,21.77
2018-11-25T03:37:44.771Z,21.30
2018-11-25T03:40:16.266Z,21.03
2018-11-25T03:42:44.944Z,22.00
2018-11-25T03:45:16.465Z,22.20
2018-11-25T03:47:45.134Z,21.40
2018-11-25T03:50:14.449Z,20.53
2018-11-25T03:52:43.038Z,20.80
2018-11-25T03:55:12.820Z,22.20
2018-11-25T03:57:41.474Z,20.53
2018-11-25T04:00:18.819Z,21.73
2018-11-25T04:02:47.546Z,19.70
2018-11-25T04:05:16.981Z,22.17
2018-11-25T04:07:45.602Z,20.27
2018-11-25T04:10:15.894Z,21.67
2018-11-25T04:12:44.573Z,20.83
2018-11-25T04:15:16.121Z,20.93
2018-11-25T04:17:44.834Z,21.70
2018-11-25T04:20:15.289Z,21.77
2018-11-25T04:22:43.932Z,24.43
2018-11-25T04:25:13.148Z,22.90
2018-11-25T04:27:41.771Z,22.20
2018-11-25T04:30:14.191Z,23.23
2018-11-25T04:32:43.152Z,22.67
2018-11-25T04:35:12.517Z,22.00
2018-11-25T04:37:41.216Z,22.80
2018-11-25T04:40:11.120Z,20.73
2018-11-25T04:42:39.724Z,23.83
2018-11-25T04:45:10.488Z,22.50
2018-11-25T04:47:39.207Z,24.83
2018-11-25T04:50:10.564Z,23.70
2018-11-25T04:52:39.197Z,22.77
2018-11-25T04:55:08.273Z,22.07
2018-11-25T04:57:36.888Z,23.33
2018-11-25T05:00:10.592Z,23.07
2018-11-25T05:02:39.554Z,23.73
2018-11-25T05:05:10.614Z,24.77
2018-11-25T05:07:39.263Z,22.20
2018-11-25T05:10:13.096Z,24.03
2018-11-25T05:12:41.794Z,22.13
2018-11-25T05:15:18.372Z,24.03
2018-11-25T05:17:47.054Z,23.20
2018-11-25T05:20:16.269Z,24.60
2018-11-25T05:22:44.905Z,25.70
2018-11-25T05:25:15.471Z,24.33
2018-11-25T05:27:44.138Z,24.23
2018-11-25T05:30:15.123Z,24.77
2018-11-25T05:32:43.751Z,22.00
2018-11-25T05:35:13.505Z,24.33
2018-11-25T05:37:42.159Z,23.83
2018-11-25T05:40:12.655Z,22.90
2018-11-25T05:42:41.300Z,21.60
2018-11-25T05:45:11.330Z,22.30
2018-11-25T05:47:40.224Z,24.07
2018-11-25T05:50:11.293Z,28.63
2018-11-25T05:52:39.994Z,31.77
2018-11-25T05:55:09.541Z,29.93
2018-11-25T05:57:38.158Z,36.57
2018-11-25T06:00:23.910Z,30.57
2018-11-25T06:02:52.539Z,22.63
2018-11-25T06:05:21.229Z,19.53
2018-11-25T06:07:49.864Z,31.80
2018-11-25T06:10:18.459Z,27.03
2018-11-25T06:12:47.084Z,32.10
2018-11-25T06:15:15.710Z,30.40
2018-11-25T06:17:44.343Z,25.57
2018-11-25T06:20:15.866Z,26.57
2018-11-25T06:22:44.737Z,22.67
2018-11-25T06:25:15.369Z,24.03
2018-11-25T06:27:44.018Z,20.50
2018-11-25T06:30:13.743Z,17.70
2018-11-25T06:32:42.385Z,18.90
2018-11-25T06:35:12.067Z,18.00
2018-11-25T06:37:40.702Z,17.37
2018-11-25T06:40:16.817Z,17.23
2018-11-25T06:42:45.519Z,17.07
2018-11-25T06:45:16.528Z,16.90
2018-11-25T06:47:45.175Z,16.50
2018-11-25T06:50:13.881Z,16.87
2018-11-25T06:52:42.518Z,16.10
2018-11-25T06:55:12.191Z,16.17
2018-11-25T06:57:40.831Z,14.77
2018-11-25T07:00:13.327Z,17.53
2018-11-25T07:02:41.974Z,16.20
2018-11-25T07:05:10.831Z,14.97
2018-11-25T07:07:39.522Z,29.97
2018-11-25T07:10:11.484Z,24.57
2018-11-25T07:12:40.143Z,21.37
2018-11-25T07:15:10.522Z,20.57
2018-11-25T07:17:39.179Z,16.27
2018-11-25T07:20:15.988Z,14.57
2018-11-25T07:22:44.698Z,14.60
2018-11-25T07:25:20.792Z,15.57
2018-11-25T07:27:49.434Z,14.50
2018-11-25T07:30:23.738Z,14.60
2018-11-25T07:32:52.385Z,14.37
2018-11-25T07:35:21.247Z,14.53
2018-11-25T07:37:49.936Z,17.87
2018-11-25T07:40:19.548Z,13.37
2018-11-25T07:42:48.421Z,15.67
2018-11-25T07:45:19.057Z,14.97
2018-11-25T07:47:47.697Z,13.40
2018-11-25T07:50:16.352Z,14.07
2018-11-25T07:52:46.872Z,14.33
2018-11-25T07:55:18.570Z,15.07
2018-11-25T07:57:47.684Z,14.07
2018-11-25T08:00:19.132Z,13.77
2018-11-25T08:02:48.310Z,14.73
2018-11-25T08:05:32.605Z,14.57
2018-11-25T08:08:01.577Z,15.20
2018-11-25T08:10:30.187Z,14.70
2018-11-25T08:12:58.855Z,15.70
2018-11-25T08:15:27.481Z,15.30
2018-11-25T08:17:56.149Z,16.00
2018-11-25T08:20:24.813Z,15.33
2018-11-25T08:22:53.503Z,15.90
2018-11-25T08:25:22.616Z,16.23
2018-11-25T08:27:51.340Z,16.03
2018-11-25T08:30:20.869Z,16.07
2018-11-25T08:32:49.679Z,16.27
2018-11-25T08:35:18.608Z,17.07
2018-11-25T08:37:47.251Z,17.13
2018-11-25T08:40:23.657Z,16.70
2018-11-25T08:42:52.596Z,15.70
2018-11-25T08:45:21.248Z,14.97
2018-11-25T08:47:49.919Z,15.80
2018-11-25T08:50:19.282Z,15.97
2018-11-25T08:52:50.726Z,15.90
2018-11-25T08:55:20.596Z,16.07
2018-11-25T08:57:49.479Z,15.73
2018-11-25T09:00:19.023Z,15.60
2018-11-25T09:02:48.174Z,16.50
2018-11-25T09:05:16.846Z,16.67
2018-11-25T09:07:45.554Z,16.27
2018-11-25T09:10:21.501Z,16.40
2018-11-25T09:12:57.887Z,16.67
2018-11-25T09:15:28.835Z,16.33
2018-11-25T09:17:57.526Z,15.70
2018-11-25T09:20:26.228Z,16.10
2018-11-25T09:22:54.842Z,17.03
2018-11-25T09:25:28.809Z,16.17
2018-11-25T09:27:58.245Z,16.27
2018-11-25T09:30:27.868Z,16.37
2018-11-25T09:32:56.538Z,16.43
2018-11-25T09:35:25.402Z,16.00
2018-11-25T09:37:54.077Z,17.57
2018-11-25T09:40:23.703Z,16.50
2018-11-25T09:42:52.342Z,15.97
2018-11-25T09:45:21.171Z,16.73
2018-11-25T09:47:50.062Z,15.43
2018-11-25T09:50:22.307Z,16.90
2018-11-25T09:52:51.048Z,16.40
2018-11-25T09:55:22.565Z,18.03
2018-11-25T09:58:00.766Z,17.80
2018-11-25T10:00:33.530Z,17.57
2018-11-25T10:03:03.354Z,17.63
2018-11-25T10:05:32.035Z,18.47
2018-11-25T10:08:00.653Z,17.07
2018-11-25T10:10:30.285Z,16.40
2018-11-25T10:12:58.939Z,18.73
2018-11-25T10:15:28.418Z,15.67
2018-11-25T10:17:59.937Z,15.50
2018-11-25T10:20:28.072Z,15.40
2018-11-25T10:22:56.904Z,16.20
2018-11-25T10:25:25.517Z,15.33
2018-11-25T10:27:54.260Z,15.97
2018-11-25T10:30:25.912Z,13.87
2018-11-25T10:32:57.904Z,14.27
2018-11-25T10:35:26.529Z,14.97
2018-11-25T10:37:55.197Z,13.97
2018-11-25T10:40:24.551Z,13.90
2018-11-25T10:42:53.503Z,13.40
2018-11-25T10:45:24.941Z,14.03
2018-11-25T10:47:53.782Z,13.97
2018-11-25T10:50:22.601Z,14.20
2018-11-25T10:52:51.355Z,12.13
2018-11-25T10:55:20.717Z,12.33
2018-11-25T10:57:51.163Z,11.33
2018-11-25T11:00:30.086Z,11.40
2018-11-25T11:03:04.341Z,12.07
2018-11-25T11:05:38.326Z,12.43
2018-11-25T11:08:07.674Z,12.17
2018-11-25T11:10:36.287Z,12.13
2018-11-25T11:13:05.398Z,11.10
2018-11-25T11:15:34.024Z,12.03
2018-11-25T11:18:02.838Z,12.70
2018-11-25T11:20:31.484Z,12.13
2018-11-25T11:23:00.667Z,11.93
2018-11-25T11:25:29.343Z,12.77
2018-11-25T11:27:57.954Z,11.03
2018-11-25T11:30:26.635Z,12.47
2018-11-25T11:32:55.295Z,12.23
2018-11-25T11:35:23.963Z,13.10
2018-11-25T11:37:52.571Z,11.53
2018-11-25T11:40:21.274Z,11.73
2018-11-25T11:42:49.886Z,12.10
2018-11-25T11:45:18.510Z,11.47
2018-11-25T11:47:47.138Z,11.60
2018-11-25T11:50:17.073Z,12.83
2018-11-25T11:52:45.693Z,11.93
2018-11-25T11:55:15.572Z,11.97
2018-11-25T11:57:44.873Z,12.47
2018-11-25T12:00:19.828Z,10.70
2018-11-25T12:02:48.510Z,11.03
2018-11-25T12:05:17.198Z,12.27
2018-11-25T12:07:45.870Z,11.07
2018-11-25T12:10:15.390Z,11.73
2018-11-25T12:12:44.058Z,10.30
2018-11-25T12:15:18.769Z,10.73
2018-11-25T12:17:47.487Z,10.63
2018-11-25T12:20:16.521Z,9.47
2018-11-25T12:22:45.438Z,8.77
2018-11-25T12:25:15.177Z,10.13
2018-11-25T12:27:43.851Z,9.80
2018-11-25T12:30:13.645Z,9.80
2018-11-25T12:32:42.890Z,10.77
2018-11-25T12:35:12.724Z,12.33
2018-11-25T12:37:41.399Z,10.87
2018-11-25T12:40:12.226Z,11.37
2018-11-25T12:42:41.602Z,11.20
2018-11-25T12:45:13.316Z,11.73
2018-11-25T12:47:42.452Z,12.20
2018-11-25T12:50:13.674Z,10.97
2018-11-25T12:52:43.722Z,10.97
2018-11-25T12:55:17.131Z,11.70
2018-11-25T12:57:46.423Z,10.97
2018-11-25T13:00:23.862Z,11.33
2018-11-25T13:02:53.034Z,11.33
2018-11-25T13:05:22.168Z,13.80
2018-11-25T13:07:52.161Z,11.80
2018-11-25T13:10:21.268Z,11.77
2018-11-25T13:12:50.466Z,10.97
2018-11-25T13:15:19.614Z,11.40
2018-11-25T13:17:48.747Z,10.50
2018-11-25T13:20:17.909Z,10.73
2018-11-25T13:22:47.952Z,11.80
2018-11-25T13:25:18.604Z,10.20
2018-11-25T13:27:47.795Z,9.73
2018-11-25T13:30:23.989Z,10.27
2018-11-25T13:32:55.073Z,9.83
2018-11-25T13:35:25.750Z,10.23
2018-11-25T13:37:54.945Z,10.60
2018-11-25T13:40:24.833Z,10.60
2018-11-25T13:42:54.038Z,11.17
2018-11-25T13:45:23.202Z,10.70
2018-11-25T13:47:53.220Z,11.50
2018-11-25T13:50:23.301Z,10.90
2018-11-25T13:52:53.436Z,10.50
2018-11-25T13:55:25.523Z,11.77
2018-11-25T13:57:55.452Z,9.37
2018-11-25T14:00:36.826Z,13.97
2018-11-25T14:03:08.244Z,10.23
2018-11-25T14:05:36.930Z,10.20
2018-11-25T14:08:06.499Z,9.93
2018-11-25T14:10:35.431Z,10.53
2018-11-25T14:13:04.158Z,10.87
2018-11-25T14:15:33.058Z,10.57
2018-11-25T14:18:02.090Z,10.30
2018-11-25T14:20:30.770Z,11.33
2018-11-25T14:22:59.418Z,11.53
2018-11-25T14:25:28.222Z,11.27
2018-11-25T14:27:59.885Z,11.33
2018-11-25T14:30:29.856Z,11.50
2018-11-25T14:32:58.670Z,11.97
2018-11-25T14:35:27.455Z,11.50
2018-11-25T14:37:58.913Z,12.00
2018-11-25T14:40:27.658Z,13.03
2018-11-25T14:42:56.303Z,12.70
2018-11-25T14:45:25.015Z,11.83
2018-11-25T14:47:53.658Z,12.80
2018-11-25T14:50:22.325Z,12.33
2018-11-25T14:52:52.126Z,12.50
2018-11-25T14:55:21.229Z,11.83
2018-11-25T14:57:49.948Z,12.70
2018-11-25T15:00:21.715Z,14.03
2018-11-25T15:02:57.123Z,14.00
2018-11-25T15:05:32.570Z,13.23
2018-11-25T15:08:01.543Z,13.97
2018-11-25T15:10:30.209Z,14.13
2018-11-25T15:12:59.104Z,13.23
2018-11-25T15:15:27.787Z,13.70
2018-11-25T15:17:56.450Z,15.27
2018-11-25T15:20:25.097Z,15.20
2018-11-25T15:22:56.549Z,15.57
2018-11-25T15:25:27.000Z,14.00
2018-11-25T15:27:55.672Z,12.23
2018-11-25T15:30:24.306Z,11.23
2018-11-25T15:32:52.938Z,11.50
2018-11-25T15:35:21.594Z,11.80
2018-11-25T15:37:51.141Z,10.63
2018-11-25T15:40:22.174Z,10.00
2018-11-25T15:42:50.831Z,9.93
2018-11-25T15:45:19.472Z,10.60
2018-11-25T15:47:51.709Z,10.17
2018-11-25T15:50:23.022Z,9.07
2018-11-25T15:52:51.690Z,9.37
2018-11-25T15:55:20.530Z,8.97
2018-11-25T15:57:49.154Z,9.53
2018-11-25T16:00:19.903Z,9.57
2018-11-25T16:02:48.693Z,10.37
2018-11-25T16:05:23.653Z,10.07
2018-11-25T16:07:52.337Z,10.50
2018-11-25T16:10:21.080Z,9.93
2018-11-25T16:12:50.442Z,10.70
2018-11-25T16:15:20.183Z,11.07
2018-11-25T16:17:49.015Z,11.57
2018-11-25T16:20:21.514Z,10.90
2018-11-25T16:22:51.627Z,11.00
2018-11-25T16:25:41.474Z,10.17
2018-11-25T16:28:19.666Z,10.87
2018-11-25T16:30:48.279Z,12.47
2018-11-25T16:33:16.917Z,11.10
2018-11-25T16:35:45.549Z,11.40
2018-11-25T16:38:14.193Z,11.97
2018-11-25T16:40:42.807Z,12.67
2018-11-25T16:43:11.427Z,11.40
2018-11-25T16:45:40.078Z,12.37
2018-11-25T16:48:08.832Z,11.43
2018-11-25T16:50:37.421Z,11.23
2018-11-25T16:53:06.818Z,9.77
2018-11-25T16:55:35.443Z,10.30
2018-11-25T16:58:04.107Z,10.03
2018-11-25T17:00:32.739Z,9.53
2018-11-25T17:03:01.388Z,10.53
2018-11-25T17:05:32.899Z,10.57
2018-11-25T17:08:07.624Z,10.60
2018-11-25T17:10:36.278Z,10.53
2018-11-25T17:13:04.917Z,10.93
2018-11-25T17:15:33.571Z,9.97
2018-11-25T17:18:02.519Z,8.97
2018-11-25T17:20:31.351Z,9.17
2018-11-25T17:22:59.978Z,9.63
2018-11-25T17:25:28.625Z,9.03
2018-11-25T17:27:57.210Z,8.80
2018-11-25T17:30:25.874Z,9.27
2018-11-25T17:32:54.498Z,9.30
2018-11-25T17:35:27.414Z,9.60
2018-11-25T17:37:56.047Z,8.73
2018-11-25T17:40:24.661Z,8.70
2018-11-25T17:42:53.734Z,9.70
2018-11-25T17:45:22.379Z,10.00
2018-11-25T17:47:50.997Z,8.43
2018-11-25T17:50:25.829Z,9.33
2018-11-25T17:52:54.461Z,10.07
2018-11-25T17:55:24.254Z,10.03
2018-11-25T17:57:53.130Z,10.00
2018-11-25T18:00:38.746Z,9.93
2018-11-25T18:03:11.353Z,9.60
2018-11-25T18:05:39.956Z,9.43
2018-11-25T18:08:08.929Z,9.73
2018-11-25T18:10:37.558Z,9.50
2018-11-25T18:13:06.796Z,9.80
2018-11-25T18:15:35.417Z,10.57
2018-11-25T18:18:09.518Z,9.63
2018-11-25T18:20:46.715Z,9.33
2018-11-25T18:23:15.401Z,11.03
2018-11-25T18:25:44.020Z,10.33
2018-11-25T18:28:12.839Z,9.93
2018-11-25T18:30:41.459Z,10.90
2018-11-25T18:33:10.299Z,10.47
2018-11-25T18:35:38.911Z,9.00
2018-11-25T18:38:08.222Z,8.17
2018-11-25T18:40:43.309Z,8.30
2018-11-25T18:43:11.918Z,9.53
2018-11-25T18:45:40.523Z,8.77
2018-11-25T18:48:10.477Z,10.33
2018-11-25T18:50:39.061Z,9.93
2018-11-25T18:53:08.933Z,8.80
2018-11-25T18:55:36.356Z,8.50
2018-11-25T18:58:05.062Z,10.13
2018-11-25T19:00:41.475Z,8.60
2018-11-25T19:03:10.123Z,9.67
2018-11-25T19:05:38.774Z,8.80
2018-11-25T19:08:08.626Z,8.87
2018-11-25T19:10:37.290Z,9.70
2018-11-25T19:13:06.094Z,9.83
2018-11-25T19:15:34.702Z,8.70
2018-11-25T19:18:04.662Z,8.70
2018-11-25T19:20:33.258Z,8.80
2018-11-25T19:23:01.995Z,9.13
2018-11-25T19:25:30.609Z,9.73
2018-11-25T19:27:59.268Z,9.00
2018-11-25T19:30:27.896Z,9.47
2018-11-25T19:32:56.523Z,8.33
2018-11-25T19:35:25.190Z,7.90
2018-11-25T19:37:53.806Z,8.90
2018-11-25T19:40:24.754Z,7.63
2018-11-25T19:42:53.389Z,9.90
2018-11-25T19:45:24.156Z,8.27
2018-11-25T19:47:52.808Z,7.70
2018-11-25T19:50:28.794Z,7.53
2018-11-25T19:52:57.482Z,8.23
2018-11-25T19:55:26.109Z,8.10
2018-11-25T19:57:54.726Z,7.50
2018-11-25T20:00:24.323Z,7.33
2018-11-25T20:02:52.959Z,8.50
2018-11-25T20:05:21.641Z,10.17
2018-11-25T20:07:50.361Z,9.40
2018-11-25T20:10:20.069Z,8.20
2018-11-25T20:12:50.459Z,7.90
2018-11-25T20:15:19.706Z,7.30
2018-11-25T20:17:54.025Z,8.27
2018-11-25T20:20:18.924Z,7.67
2018-11-25T20:22:47.794Z,7.60
2018-11-25T20:25:16.832Z,7.87
2018-11-25T20:27:47.361Z,8.03
2018-11-25T20:30:18.894Z,7.33
2018-11-25T20:32:52.699Z,7.67
2018-11-25T20:35:21.353Z,7.07
2018-11-25T20:37:55.170Z,7.53
2018-11-25T20:40:23.798Z,6.80
2018-11-25T20:42:52.538Z,7.70
2018-11-25T20:45:27.019Z,7.73
2018-11-25T20:47:56.725Z,8.33
2018-11-25T20:50:25.336Z,6.70
2018-11-25T20:52:59.132Z,7.10
2018-11-25T20:55:27.751Z,6.97
2018-11-25T20:57:56.379Z,7.03
2018-11-25T21:00:26.213Z,7.13
2018-11-25T21:02:54.904Z,7.00
2018-11-25T21:05:23.887Z,6.37
2018-11-25T21:07:53.155Z,6.77
2018-11-25T21:10:21.770Z,6.97
2018-11-25T21:12:51.681Z,7.80
2018-11-25T21:15:20.326Z,7.27
2018-11-25T21:17:48.956Z,6.90
2018-11-25T21:20:19.894Z,7.70
2018-11-25T21:22:48.531Z,6.80
2018-11-25T21:25:18.972Z,7.57
2018-11-25T21:27:47.686Z,7.47
2018-11-25T21:30:19.337Z,6.63
2018-11-25T21:32:48.977Z,7.60
2018-11-25T21:35:17.680Z,6.60
2018-11-25T21:37:46.402Z,7.23
2018-11-25T21:40:17.043Z,7.20
2018-11-25T21:42:45.775Z,7.30
2018-11-25T21:45:15.512Z,6.97
2018-11-25T21:47:44.237Z,6.93
2018-11-25T21:50:15.046Z,7.03
2018-11-25T21:52:43.670Z,7.17
2018-11-25T21:55:16.095Z,7.10
2018-11-25T21:57:44.716Z,7.73
2018-11-25T22:00:14.502Z,7.83
2018-11-25T22:02:43.192Z,7.70
2018-11-25T22:05:12.363Z,7.70
2018-11-25T22:07:40.989Z,7.33
2018-11-25T22:10:10.721Z,6.87
2018-11-25T22:12:40.048Z,7.80
2018-11-25T22:15:09.966Z,7.83
2018-11-25T22:17:38.576Z,7.90
2018-11-25T22:20:08.901Z,7.77
2018-11-25T22:22:37.505Z,7.80
2018-11-25T22:25:08.516Z,8.53
2018-11-25T22:27:37.191Z,8.43
2018-11-25T22:30:14.898Z,8.77
2018-11-25T22:32:43.498Z,8.53
2018-11-25T22:35:14.751Z,8.57
2018-11-25T22:37:43.390Z,9.07
2018-11-25T22:40:12.907Z,8.93
2018-11-25T22:42:42.391Z,9.83
2018-11-25T22:45:13.706Z,8.70
2018-11-25T22:47:42.330Z,8.87
2018-11-25T22:50:13.066Z,9.00
2018-11-25T22:52:41.720Z,8.97
2018-11-25T22:55:12.742Z,9.70
2018-11-25T22:57:41.367Z,8.90
2018-11-25T23:00:42.642Z,8.73
2018-11-25T23:03:11.268Z,9.00
2018-11-25T23:05:51.054Z,8.60
2018-11-25T23:08:19.677Z,9.63
2018-11-25T23:10:48.315Z,9.33
2018-11-25T23:13:16.922Z,9.70
2018-11-25T23:15:45.668Z,9.80
2018-11-25T23:18:14.308Z,9.90
2018-11-25T23:20:42.958Z,11.17
2018-11-25T23:23:11.554Z,12.13
2018-11-25T23:25:40.207Z,9.97
2018-11-25T23:28:08.814Z,9.37
2018-11-25T23:30:37.445Z,9.77
2018-11-25T23:33:06.129Z,10.40
2018-11-25T23:35:35.091Z,9.93
2018-11-25T23:38:03.725Z,10.40
2018-11-25T23:40:32.367Z,9.90
2018-11-25T23:43:00.946Z,10.73
2018-11-25T23:45:29.619Z,10.17
2018-11-25T23:47:58.213Z,11.27
2018-11-25T23:50:26.856Z,10.50
2018-11-25T23:52:55.470Z,10.27
2018-11-25T23:55:24.122Z,11.33
2018-11-25T23:57:52.723Z,10.83
